createdAt,value
2023-01-21T00:00:38.816Z,101458.59
2023-01-21T00:03:21.450Z,101463.00
2023-01-21T00:05:47.668Z,101463.94
2023-01-21T00:08:14.161Z,101465.25
2023-01-21T00:10:40.368Z,101459.03
2023-01-21T00:13:07.156Z,101460.03
2023-01-21T00:15:35.489Z,101460.66
2023-01-21T00:18:02.126Z,101465.06
2023-01-21T00:20:28.274Z,101464.00
2023-01-21T00:22:54.960Z,101471.19
2023-01-21T00:25:21.723Z,101469.75
2023-01-21T00:27:48.152Z,101462.63
2023-01-21T00:30:14.536Z,101471.66
2023-01-21T00:32:41.552Z,101463.56
2023-01-21T00:35:08.453Z,101458.88
2023-01-21T00:37:34.952Z,101468.59
2023-01-21T00:40:01.257Z,101477.69
2023-01-21T00:42:27.956Z,101485.97
2023-01-21T00:44:56.587Z,101490.47
2023-01-21T00:47:23.793Z,101495.72
2023-01-21T00:49:50.093Z,101504.56
2023-01-21T00:52:16.829Z,101503.53
2023-01-21T00:54:43.020Z,101499.06
2023-01-21T00:57:09.628Z,101510.91
2023-01-21T00:59:35.949Z,101520.56
2023-01-21T01:02:02.384Z,101517.25
2023-01-21T01:04:28.573Z,101524.75
2023-01-21T01:06:55.018Z,101508.47
2023-01-21T01:09:21.156Z,101515.81
2023-01-21T01:11:48.465Z,101519.63
2023-01-21T01:14:14.726Z,101517.09
2023-01-21T01:16:41.166Z,101516.81
2023-01-21T01:19:07.299Z,101511.34
2023-01-21T01:21:33.752Z,101517.97
2023-01-21T01:24:02.396Z,101520.22
2023-01-21T01:26:29.062Z,101518.06
2023-01-21T01:28:55.194Z,101516.25
2023-01-21T01:31:21.786Z,101520.22
2023-01-21T01:33:48.060Z,101522.00
2023-01-21T01:36:23.115Z,101525.63
2023-01-21T01:38:50.599Z,101518.56
2023-01-21T01:41:29.508Z,101522.66
2023-01-21T01:43:57.338Z,101520.84
2023-01-21T01:46:27.174Z,101512.34
2023-01-21T01:49:20.681Z,101520.91
2023-01-21T01:51:57.756Z,101525.03
2023-01-21T01:54:29.431Z,101526.63
2023-01-21T01:56:59.885Z,101518.91
2023-01-21T01:59:27.504Z,101520.44
2023-01-21T02:01:56.178Z,101529.94
2023-01-21T02:04:28.871Z,101529.22
2023-01-21T02:06:57.070Z,101524.19
2023-01-21T02:09:28.927Z,101523.69
2023-01-21T02:12:00.831Z,101523.75
2023-01-21T02:14:29.128Z,101520.00
2023-01-21T02:17:29.301Z,101518.53
2023-01-21T02:20:17.056Z,101510.47
2023-01-21T02:23:11.588Z,101510.16
2023-01-21T02:25:53.198Z,101512.25
2023-01-21T02:28:57.883Z,101503.38
2023-01-21T02:31:47.905Z,101507.56
2023-01-21T02:34:44.194Z,101509.66
2023-01-21T02:37:17.422Z,101514.88
2023-01-21T02:39:57.701Z,101511.25
2023-01-21T02:42:26.565Z,101500.78
2023-01-21T02:45:32.148Z,101500.78
2023-01-21T02:48:05.619Z,101503.03
2023-01-21T02:50:36.081Z,101502.78
2023-01-21T02:53:03.776Z,101497.75
2023-01-21T02:55:35.140Z,101500.78
2023-01-21T02:58:11.179Z,101500.91
2023-01-21T03:01:08.318Z,101507.75
2023-01-21T03:03:46.410Z,101504.31
2023-01-21T03:06:27.353Z,101519.09
2023-01-21T03:09:01.291Z,101521.22
2023-01-21T03:11:31.143Z,101522.94
2023-01-21T03:14:22.491Z,101521.13
2023-01-21T03:17:02.750Z,101515.88
2023-01-21T03:19:58.954Z,101519.81
2023-01-21T03:22:28.901Z,101520.22
2023-01-21T03:24:57.700Z,101520.22
2023-01-21T03:27:27.464Z,101523.13
2023-01-21T03:29:58.985Z,101521.94
2023-01-21T03:32:28.193Z,101512.41
2023-01-21T03:34:56.165Z,101512.41
2023-01-21T03:37:35.964Z,101507.06
2023-01-21T03:40:06.887Z,101505.34
2023-01-21T03:42:33.472Z,101495.59
2023-01-21T03:44:59.810Z,101499.84
2023-01-21T03:47:31.471Z,101495.59
2023-01-21T03:50:31.059Z,101495.19
2023-01-21T03:52:57.497Z,101496.00
2023-01-21T03:55:23.671Z,101488.63
2023-01-21T03:57:50.108Z,101486.88
2023-01-21T04:00:17.172Z,101483.47
2023-01-21T04:02:43.736Z,101488.66
2023-01-21T04:05:10.092Z,101488.81
2023-01-21T04:07:36.546Z,101489.38
2023-01-21T04:10:02.961Z,101498.09
2023-01-21T04:12:29.450Z,101498.09
2023-01-21T04:14:56.705Z,101487.56
2023-01-21T04:17:23.448Z,101487.75
2023-01-21T04:19:49.700Z,101478.38
2023-01-21T04:22:16.095Z,101487.03
2023-01-21T04:24:42.226Z,101487.66
2023-01-21T04:27:08.619Z,101480.03
2023-01-21T04:29:34.756Z,101479.16
2023-01-21T04:32:01.300Z,101477.47
2023-01-21T04:34:27.475Z,101480.38
2023-01-21T04:36:53.893Z,101477.47
2023-01-21T04:39:20.121Z,101480.28
2023-01-21T04:41:46.523Z,101476.91
2023-01-21T04:44:12.848Z,101477.47
2023-01-21T04:46:39.296Z,101473.06
2023-01-21T04:49:05.586Z,101474.94
2023-01-21T04:51:32.113Z,101474.88
2023-01-21T04:53:58.389Z,101472.69
2023-01-21T04:56:24.937Z,101466.63
2023-01-21T04:58:51.043Z,101465.41
2023-01-21T05:01:17.536Z,101463.06
2023-01-21T05:03:43.736Z,101457.41
2023-01-21T05:06:10.163Z,101459.38
2023-01-21T05:08:36.380Z,101460.22
2023-01-21T05:11:02.840Z,101472.25
2023-01-21T05:13:29.009Z,101468.41
2023-01-21T05:15:55.490Z,101469.81
2023-01-21T05:18:21.668Z,101466.63
2023-01-21T05:20:48.366Z,101470.84
2023-01-21T05:23:14.544Z,101468.00
2023-01-21T05:25:40.931Z,101481.63
2023-01-21T05:28:07.473Z,101472.34
2023-01-21T05:30:34.018Z,101466.28
2023-01-21T05:33:00.194Z,101462.44
2023-01-21T05:35:27.012Z,101456.25
2023-01-21T05:37:53.136Z,101461.00
2023-01-21T05:40:20.158Z,101466.19
2023-01-21T05:42:46.520Z,101463.53
2023-01-21T05:45:13.795Z,101464.25
2023-01-21T05:47:40.162Z,101458.13
2023-01-21T05:50:07.412Z,101456.31
2023-01-21T05:52:34.061Z,101460.16
2023-01-21T05:55:02.507Z,101447.41
2023-01-21T05:57:30.342Z,101452.69
2023-01-21T05:59:57.266Z,101447.34
2023-01-21T06:02:23.769Z,101447.25
2023-01-21T06:04:50.542Z,101464.88
2023-01-21T06:07:16.768Z,101457.41
2023-01-21T06:09:43.253Z,101454.25
2023-01-21T06:12:09.421Z,101463.78
2023-01-21T06:14:36.282Z,101460.69
2023-01-21T06:17:02.600Z,101459.69
2023-01-21T06:19:29.084Z,101455.59
2023-01-21T06:21:55.229Z,101462.59
2023-01-21T06:24:22.004Z,101476.03
2023-01-21T06:26:48.342Z,101467.06
2023-01-21T06:29:14.900Z,101467.16
2023-01-21T06:31:41.402Z,101474.00
2023-01-21T06:34:09.367Z,101470.28
2023-01-21T06:36:35.648Z,101476.09
2023-01-21T06:39:02.600Z,101475.63
2023-01-21T06:41:29.439Z,101472.50
2023-01-21T06:43:55.920Z,101474.53
2023-01-21T06:46:22.220Z,101465.66
2023-01-21T06:48:48.877Z,101470.91
2023-01-21T06:51:15.211Z,101445.22
2023-01-21T06:53:41.906Z,101468.88
2023-01-21T06:56:08.040Z,101477.84
2023-01-21T06:58:34.476Z,101469.97
2023-01-21T07:01:00.616Z,101458.34
2023-01-21T07:03:28.417Z,101447.31
2023-01-21T07:05:54.552Z,101451.56
2023-01-21T07:08:21.075Z,101452.19
2023-01-21T07:10:47.910Z,101447.25
2023-01-21T07:13:14.569Z,101451.09
2023-01-21T07:15:40.848Z,101442.44
2023-01-21T07:18:07.479Z,101432.88
2023-01-21T07:20:34.000Z,101434.50
2023-01-21T07:23:01.011Z,101434.34
2023-01-21T07:25:27.369Z,101426.09
2023-01-21T07:27:53.838Z,101445.75
2023-01-21T07:30:20.741Z,101439.91
2023-01-21T07:32:47.373Z,101428.34
2023-01-21T07:35:13.839Z,101426.34
2023-01-21T07:37:40.635Z,101437.66
2023-01-21T07:40:07.652Z,101441.28
2023-01-21T07:42:34.330Z,101442.66
2023-01-21T07:45:03.082Z,101433.94
2023-01-21T07:47:29.907Z,101444.94
2023-01-21T07:49:56.368Z,101434.97
2023-01-21T07:52:23.206Z,101436.28
2023-01-21T07:54:49.455Z,101429.72
2023-01-21T07:57:15.980Z,101424.34
2023-01-21T07:59:42.380Z,101423.38
2023-01-21T08:02:10.406Z,101413.50
2023-01-21T08:04:36.867Z,101417.75
2023-01-21T08:07:09.291Z,101420.16
2023-01-21T08:09:37.055Z,101399.19
2023-01-21T08:12:05.077Z,101394.53
2023-01-21T08:14:32.025Z,101394.94
2023-01-21T08:16:59.773Z,101401.94
2023-01-21T08:19:26.633Z,101404.31
2023-01-21T08:21:53.361Z,101379.00
2023-01-21T08:24:19.597Z,101385.66
2023-01-21T08:26:46.141Z,101386.28
2023-01-21T08:29:12.545Z,101382.03
2023-01-21T08:31:39.178Z,101363.97
2023-01-21T08:34:05.571Z,101375.81
2023-01-21T08:36:32.070Z,101361.75
2023-01-21T08:39:01.132Z,101358.47
2023-01-21T08:41:29.278Z,101356.84
2023-01-21T08:43:55.531Z,101362.03
2023-01-21T08:46:22.117Z,101346.44
2023-01-21T08:48:49.110Z,101359.19
2023-01-21T08:51:16.127Z,101336.94
2023-01-21T08:53:42.646Z,101355.03
2023-01-21T08:56:09.162Z,101358.50
2023-01-21T08:58:35.321Z,101344.34
2023-01-21T09:01:07.108Z,101355.56
2023-01-21T09:03:33.640Z,101366.97
2023-01-21T09:06:01.666Z,101353.94
2023-01-21T09:08:28.635Z,101358.94
2023-01-21T09:11:01.832Z,101355.16
2023-01-21T09:13:33.192Z,101344.19
2023-01-21T09:16:00.742Z,101332.38
2023-01-21T09:18:27.027Z,101336.88
2023-01-21T09:20:53.820Z,101335.91
2023-01-21T09:23:26.008Z,101327.19
2023-01-21T09:25:53.720Z,101331.06
2023-01-21T09:28:21.355Z,101321.06
2023-01-21T09:30:48.286Z,101311.31
2023-01-21T09:33:14.895Z,101308.28
2023-01-21T09:35:41.512Z,101308.81
2023-01-21T09:38:07.646Z,101309.16
2023-01-21T09:40:35.123Z,101297.31
2023-01-21T09:43:10.742Z,101291.03
2023-01-21T09:45:39.608Z,101291.72
2023-01-21T09:48:08.319Z,101295.16
2023-01-21T09:50:38.033Z,101292.22
2023-01-21T09:53:24.177Z,101278.94
2023-01-21T09:55:53.060Z,101270.66
2023-01-21T09:58:29.754Z,101298.09
2023-01-21T10:01:11.293Z,101282.31
2023-01-21T10:03:40.379Z,101268.44
2023-01-21T10:06:19.079Z,101279.97
2023-01-21T10:09:00.937Z,101275.25
2023-01-21T10:11:46.312Z,101269.97
2023-01-21T10:14:29.236Z,101272.03
2023-01-21T10:17:24.791Z,101273.34
2023-01-21T10:20:05.339Z,101273.09
2023-01-21T10:22:32.035Z,101276.63
2023-01-21T10:25:17.230Z,101273.25
2023-01-21T10:27:44.970Z,101276.81
2023-01-21T10:30:25.981Z,101278.97
2023-01-21T10:32:54.763Z,101275.50
2023-01-21T10:35:37.489Z,101274.22
2023-01-21T10:38:39.402Z,101277.75
2023-01-21T10:41:23.998Z,101277.06
2023-01-21T10:44:15.375Z,101278.34
2023-01-21T10:46:51.152Z,101275.25
2023-01-21T10:49:41.262Z,101271.38
2023-01-21T10:52:13.696Z,101274.22
2023-01-21T10:54:57.237Z,101267.56
2023-01-21T10:57:53.467Z,101271.97
2023-01-21T11:00:25.547Z,101272.72
2023-01-21T11:02:59.526Z,101269.03
2023-01-21T11:05:27.788Z,101263.50
2023-01-21T11:07:55.126Z,101269.97
2023-01-21T11:10:24.077Z,101267.81
2023-01-21T11:12:52.433Z,101253.16
2023-01-21T11:19:41.912Z,101258.25
2023-01-21T11:22:11.652Z,101252.69
2023-01-21T11:24:49.752Z,101259.44
2023-01-21T11:27:31.356Z,101256.94
2023-01-21T11:29:57.777Z,101257.53
2023-01-21T11:32:26.895Z,101258.72
2023-01-21T11:35:04.383Z,101258.47
2023-01-21T11:37:33.073Z,101253.50
2023-01-21T11:40:28.085Z,101249.88
2023-01-21T11:42:56.084Z,101254.88
2023-01-21T11:45:29.754Z,101254.00
2023-01-21T11:47:57.720Z,101242.75
2023-01-21T11:50:36.914Z,101255.19
2023-01-21T11:53:07.323Z,101247.88
2023-01-21T11:55:41.440Z,101248.16
2023-01-21T11:58:24.369Z,101245.09
2023-01-21T12:00:54.598Z,101248.81
2023-01-21T12:03:26.216Z,101242.69
2023-01-21T12:05:53.218Z,101251.50
2023-01-21T12:08:29.252Z,101240.44
2023-01-21T12:11:01.228Z,101245.63
2023-01-21T12:13:36.435Z,101248.75
2023-01-21T12:16:29.548Z,101238.72
2023-01-21T12:19:17.022Z,101253.38
2023-01-21T12:21:52.311Z,101236.56
2023-01-21T12:24:21.731Z,101237.00
2023-01-21T12:26:58.117Z,101239.22
2023-01-21T12:29:43.409Z,101241.72
2023-01-21T12:32:38.272Z,101236.47
2023-01-21T12:35:16.957Z,101238.03
2023-01-21T12:37:48.957Z,101236.31
2023-01-21T12:40:21.000Z,101235.44
2023-01-21T12:42:54.327Z,101237.53
2023-01-21T12:45:28.210Z,101227.16
2023-01-21T12:48:05.263Z,101234.06
2023-01-21T12:50:40.336Z,101236.72
2023-01-21T12:53:19.715Z,101235.63
2023-01-21T12:55:49.343Z,101236.84
2023-01-21T12:58:20.753Z,101238.91
2023-01-21T13:00:50.416Z,101247.97
2023-01-21T13:03:38.592Z,101240.66
2023-01-21T13:06:18.268Z,101239.16
2023-01-21T13:08:54.037Z,101247.13
2023-01-21T13:11:25.675Z,101251.16
2023-01-21T13:14:06.773Z,101248.59
2023-01-21T13:16:55.417Z,101251.59
2023-01-21T13:19:22.336Z,101241.59
2023-01-21T13:22:02.708Z,101241.78
2023-01-21T13:24:38.863Z,101250.22
2023-01-21T13:27:21.724Z,101254.38
2023-01-21T13:29:48.098Z,101257.56
2023-01-21T13:32:31.369Z,101258.41
2023-01-21T13:35:12.963Z,101257.72
2023-01-21T13:37:59.715Z,101261.53
2023-01-21T13:41:00.559Z,101254.19
2023-01-21T13:43:55.403Z,101246.00
2023-01-21T13:46:25.082Z,101248.16
2023-01-21T13:49:13.182Z,101247.56
2023-01-21T13:51:44.611Z,101250.66
2023-01-21T13:54:23.495Z,101248.84
2023-01-21T13:57:12.703Z,101249.97
2023-01-21T13:59:46.901Z,101253.25
2023-01-21T14:02:23.919Z,101249.34
2023-01-21T14:05:02.913Z,101258.50
2023-01-21T14:07:38.392Z,101264.72
2023-01-21T14:10:18.054Z,101255.84
2023-01-21T14:13:02.941Z,101257.03
2023-01-21T14:15:41.906Z,101269.13
2023-01-21T14:18:44.133Z,101267.81
2023-01-21T14:21:28.668Z,101270.50
2023-01-21T14:24:11.102Z,101267.13
2023-01-21T14:26:59.930Z,101268.69
2023-01-21T14:29:34.088Z,101268.44
2023-01-21T14:32:23.917Z,101263.59
2023-01-21T14:35:27.604Z,101268.09
2023-01-21T14:38:21.138Z,101269.63
2023-01-21T14:40:49.804Z,101271.72
2023-01-21T14:43:31.667Z,101272.41
2023-01-21T14:46:01.425Z,101278.00
2023-01-21T14:48:39.051Z,101283.88
2023-01-21T14:51:05.408Z,101294.47
2023-01-21T14:54:03.482Z,101298.63
2023-01-21T14:56:32.457Z,101292.75
2023-01-21T14:59:08.449Z,101303.88
2023-01-21T15:01:35.274Z,101305.69
2023-01-21T15:04:07.720Z,101305.63
2023-01-21T15:11:00.594Z,101309.31
2023-01-21T15:13:33.095Z,101319.50
2023-01-21T15:16:16.877Z,101331.75
2023-01-21T15:19:04.221Z,101327.53
2023-01-21T15:21:42.946Z,101335.19
2023-01-21T15:24:22.287Z,101324.41
2023-01-21T15:27:11.852Z,101328.09
2023-01-21T15:29:40.536Z,101322.09
2023-01-21T15:32:31.621Z,101337.53
2023-01-21T15:34:59.901Z,101334.75
2023-01-21T15:37:28.820Z,101336.25
2023-01-21T15:40:01.721Z,101338.03
2023-01-21T15:42:41.887Z,101339.59
2023-01-21T15:45:20.578Z,101343.44
2023-01-21T15:48:11.600Z,101346.63
2023-01-21T15:50:58.556Z,101351.91
2023-01-21T15:54:00.538Z,101351.47
2023-01-21T15:56:54.805Z,101356.25
2023-01-21T15:59:34.723Z,101359.94
2023-01-21T16:02:22.109Z,101362.53
2023-01-21T16:05:07.247Z,101364.19
2023-01-21T16:07:49.462Z,101369.44
2023-01-21T16:10:28.049Z,101376.06
2023-01-21T16:13:18.981Z,101372.69
2023-01-21T16:16:08.394Z,101370.09
2023-01-21T16:18:35.039Z,101378.53
2023-01-21T16:21:02.951Z,101378.63
2023-01-21T16:23:36.477Z,101374.50
2023-01-21T16:26:03.336Z,101381.25
2023-01-21T16:28:42.038Z,101389.75
2023-01-21T16:31:09.671Z,101396.50
2023-01-21T16:33:36.882Z,101402.34
2023-01-21T16:36:07.250Z,101410.16
2023-01-21T16:38:36.324Z,101422.41
2023-01-21T16:41:05.792Z,101418.78
2023-01-21T16:43:36.556Z,101413.22
2023-01-21T16:46:05.539Z,101412.44
2023-01-21T16:48:33.575Z,101419.50
2023-01-21T16:51:00.635Z,101432.88
2023-01-21T16:53:27.807Z,101422.16
2023-01-21T16:55:56.582Z,101428.47
2023-01-21T16:58:34.143Z,101434.13
2023-01-21T17:01:19.876Z,101432.09
2023-01-21T17:03:49.062Z,101436.16
2023-01-21T17:06:30.092Z,101447.63
2023-01-21T17:09:01.256Z,101438.84
2023-01-21T17:11:28.120Z,101446.84
2023-01-21T17:13:54.941Z,101440.72
2023-01-21T17:16:21.302Z,101453.94
2023-01-21T17:19:21.092Z,101464.88
2023-01-21T17:21:54.740Z,101461.94
2023-01-21T17:24:33.481Z,101457.09
2023-01-21T17:27:21.253Z,101465.66
2023-01-21T17:29:47.881Z,101461.88
2023-01-21T17:32:33.456Z,101466.69
2023-01-21T17:35:17.105Z,101472.34
2023-01-21T17:37:50.525Z,101475.72
2023-01-21T17:40:27.858Z,101483.34
2023-01-21T17:42:55.290Z,101484.13
2023-01-21T17:45:29.003Z,101485.63
2023-01-21T17:48:14.529Z,101501.41
2023-01-21T17:50:46.668Z,101503.94
2023-01-21T17:53:26.596Z,101505.03
2023-01-21T17:56:14.685Z,101514.47
2023-01-21T17:58:50.459Z,101524.63
2023-01-21T18:01:19.601Z,101514.63
2023-01-21T18:03:46.239Z,101519.50
2023-01-21T18:06:19.754Z,101526.28
2023-01-21T18:08:46.587Z,101523.91
2023-01-21T18:11:19.229Z,101528.47
2023-01-21T18:13:46.954Z,101537.75
2023-01-21T18:16:15.793Z,101542.94
2023-01-21T18:18:44.342Z,101539.81
2023-01-21T18:21:21.064Z,101537.13
2023-01-21T18:23:49.601Z,101542.41
2023-01-21T18:26:29.632Z,101539.41
2023-01-21T18:28:56.575Z,101539.88
2023-01-21T18:31:25.021Z,101545.75
2023-01-21T18:33:52.605Z,101547.97
2023-01-21T18:36:20.041Z,101549.31
2023-01-21T18:38:47.652Z,101555.97
2023-01-21T18:41:14.819Z,101550.09
2023-01-21T18:43:42.333Z,101558.81
2023-01-21T18:46:14.216Z,101558.25
2023-01-21T18:48:42.281Z,101568.81
2023-01-21T18:51:09.952Z,101562.44
2023-01-21T18:53:36.400Z,101566.22
2023-01-21T18:56:05.574Z,101566.28
2023-01-21T18:58:32.515Z,101571.84
2023-01-21T19:01:03.978Z,101574.06
2023-01-21T19:03:35.146Z,101578.63
2023-01-21T19:06:02.012Z,101582.81
2023-01-21T19:08:28.907Z,101583.81
2023-01-21T19:10:55.902Z,101583.75
2023-01-21T19:13:22.515Z,101593.91
2023-01-21T19:15:50.014Z,101592.31
2023-01-21T19:18:16.806Z,101589.56
2023-01-21T19:20:44.100Z,101601.44
2023-01-21T19:23:16.682Z,101598.91
2023-01-21T19:25:49.993Z,101599.72
2023-01-21T19:28:18.399Z,101605.53
2023-01-21T19:30:45.996Z,101599.25
2023-01-21T19:33:12.813Z,101616.47
2023-01-21T19:35:43.945Z,101604.91
2023-01-21T19:38:15.734Z,101615.75
2023-01-21T19:40:42.699Z,101617.56
2023-01-21T19:43:13.849Z,101617.19
2023-01-21T19:45:41.630Z,101622.59
2023-01-21T19:48:13.492Z,101626.84
2023-01-21T19:50:40.408Z,101638.56
2023-01-21T19:53:10.482Z,101641.25
2023-01-21T19:55:39.596Z,101652.88
2023-01-21T19:58:23.562Z,101652.31
2023-01-21T20:00:53.064Z,101657.59
2023-01-21T20:03:22.727Z,101654.69
2023-01-21T20:06:02.545Z,101654.84
2023-01-21T20:08:30.852Z,101652.44
2023-01-21T20:10:57.445Z,101659.81
2023-01-21T20:13:25.476Z,101656.41
2023-01-21T20:15:53.676Z,101660.34
2023-01-21T20:18:27.592Z,101659.97
2023-01-21T20:20:54.688Z,101663.19
2023-01-21T20:23:23.167Z,101675.13
2023-01-21T20:25:54.548Z,101673.09
2023-01-21T20:28:24.681Z,101675.84
2023-01-21T20:30:54.129Z,101675.69
2023-01-21T20:33:23.023Z,101689.00
2023-01-21T20:35:53.362Z,101685.91
2023-01-21T20:38:29.540Z,101692.97
2023-01-21T20:40:56.635Z,101703.53
2023-01-21T20:43:23.769Z,101707.16
2023-01-21T20:45:51.010Z,101710.47
2023-01-21T20:48:25.303Z,101713.13
2023-01-21T20:50:53.697Z,101721.81
2023-01-21T20:53:21.251Z,101720.16
2023-01-21T20:55:51.054Z,101732.00
2023-01-21T20:58:19.259Z,101732.34
2023-01-21T21:00:46.138Z,101730.75
2023-01-21T21:03:15.986Z,101725.63
2023-01-21T21:05:42.502Z,101731.22
2023-01-21T21:08:20.841Z,101733.81
2023-01-21T21:10:50.398Z,101726.50
2023-01-21T21:13:18.059Z,101737.41
2023-01-21T21:15:46.538Z,101740.47
2023-01-21T21:18:14.472Z,101735.84
2023-01-21T21:20:41.869Z,101740.03
2023-01-21T21:23:13.609Z,101734.88
2023-01-21T21:25:45.849Z,101749.13
2023-01-21T21:28:15.422Z,101741.03
2023-01-21T21:30:42.274Z,101748.25
2023-01-21T21:33:16.100Z,101752.59
2023-01-21T21:35:44.002Z,101750.56
2023-01-21T21:38:14.726Z,101761.84
2023-01-21T21:40:41.510Z,101761.91
2023-01-21T21:43:31.377Z,101756.06
2023-01-21T21:46:26.544Z,101761.41
2023-01-21T21:48:53.212Z,101765.88
2023-01-21T21:51:21.789Z,101775.88
2023-01-21T21:53:49.182Z,101775.56
2023-01-21T21:56:21.440Z,101769.72
2023-01-21T21:58:50.046Z,101773.19
2023-01-21T22:01:19.615Z,101773.19
2023-01-21T22:03:46.805Z,101786.63
2023-01-21T22:06:13.939Z,101780.94
2023-01-21T22:08:43.530Z,101786.41
2023-01-21T22:11:14.154Z,101780.28
2023-01-21T22:13:42.829Z,101786.41
2023-01-21T22:16:14.337Z,101781.34
2023-01-21T22:18:41.153Z,101789.00
2023-01-21T22:21:12.207Z,101798.19
2023-01-21T22:23:38.779Z,101793.84
2023-01-21T22:26:08.978Z,101804.84
2023-01-21T22:28:36.050Z,101803.97
2023-01-21T22:31:07.790Z,101808.69
2023-01-21T22:33:36.377Z,101808.97
2023-01-21T22:36:07.169Z,101808.09
2023-01-21T22:38:35.588Z,101817.84
2023-01-21T22:41:03.368Z,101818.22
2023-01-21T22:43:31.327Z,101822.41
2023-01-21T22:45:58.802Z,101818.00
2023-01-21T22:48:26.888Z,101819.94
2023-01-21T22:50:58.843Z,101822.56
2023-01-21T22:53:26.877Z,101827.63
2023-01-21T22:55:58.644Z,101828.69
2023-01-21T22:58:26.797Z,101821.19
2023-01-21T23:00:53.726Z,101830.78
2023-01-21T23:03:22.289Z,101826.44
2023-01-21T23:05:49.431Z,101833.25
2023-01-21T23:08:17.165Z,101833.41
2023-01-21T23:10:45.141Z,101841.00
2023-01-21T23:13:15.908Z,101832.97
2023-01-21T23:15:44.169Z,101832.53
2023-01-21T23:18:12.701Z,101837.16
2023-01-21T23:20:41.206Z,101846.19
2023-01-21T23:23:09.211Z,101840.41
2023-01-21T23:25:45.927Z,101850.03
2023-01-21T23:28:13.761Z,101843.66
2023-01-21T23:30:40.253Z,101859.19
2023-01-21T23:33:07.550Z,101859.25
2023-01-21T23:35:35.040Z,101856.81
2023-01-21T23:38:03.118Z,101860.16
2023-01-21T23:40:29.484Z,101876.63
2023-01-21T23:42:56.060Z,101870.84
2023-01-21T23:45:22.375Z,101864.72
2023-01-21T23:47:48.880Z,101877.94
2023-01-21T23:50:15.484Z,101879.69
2023-01-21T23:52:42.185Z,101881.41
2023-01-21T23:55:09.844Z,101894.78
2023-01-21T23:57:36.587Z,101891.97
